Time;durP1;ratioP1;P1;durP2;ratioP2;P2;SDS_P1;SDS_P2;PMS_P1;PMS_P2;Temp;Humidity;BMP_temperature;BMP_pressure;BME280_temperature;BME280_humidity;BME280_pressure;Samples;Min_cycle;Max_cycle;Signal;HPM_P1;HPM_P2
2023/04/26 00:00:00;;;;;;;1.20;1.10;;;15.10;54.80;;;;;;5065809;28;45310;-68
2023/04/26 00:02:27;;;;;;;1.50;1.00;;;15.10;54.80;;;;;;5066112;28;45207;-69
2023/04/26 00:04:57;;;;;;;1.05;1.00;;;15.10;54.80;;;;;;5066372;28;45491;-68
2023/04/26 00:07:24;;;;;;;2.33;1.10;;;15.10;54.80;;;;;;5065814;28;47054;-68
2023/04/26 00:09:51;;;;;;;0.82;0.82;;;15.10;54.80;;;;;;5065836;28;45144;-68
2023/04/26 00:12:18;;;;;;;0.95;0.93;;;15.10;54.80;;;;;;5065847;28;45248;-68
2023/04/26 00:14:46;;;;;;;0.80;0.80;;;15.10;54.80;;;;;;5065963;28;45167;-68
2023/04/26 00:17:13;;;;;;;1.00;1.00;;;15.00;54.70;;;;;;5065783;28;46722;-68
2023/04/26 00:19:39;;;;;;;0.95;0.95;;;15.00;54.80;;;;;;5065900;28;45594;-68
2023/04/26 00:22:07;;;;;;;0.95;0.82;;;15.00;54.80;;;;;;5065841;28;45190;-68
2023/04/26 00:24:34;;;;;;;1.02;0.90;;;15.00;54.70;;;;;;5065835;28;45444;-68
2023/04/26 00:27:04;;;;;;;0.80;0.80;;;15.00;54.70;;;;;;5065161;28;46758;-68
2023/04/26 00:29:30;;;;;;;1.05;1.02;;;15.00;54.70;;;;;;5065726;28;45305;-68
2023/04/26 00:31:59;;;;;;;1.10;1.00;;;15.00;54.80;;;;;;5065804;28;45141;-68
2023/04/26 00:34:31;;;;;;;1.40;1.00;;;15.00;54.80;;;;;;5066200;28;45406;-68
2023/04/26 00:36:58;;;;;;;1.10;1.00;;;15.00;54.80;;;;;;5065367;28;46649;-69
2023/04/26 00:39:25;;;;;;;0.90;0.90;;;15.00;54.80;;;;;;5067849;28;45112;-68
2023/04/26 00:41:52;;;;;;;1.20;1.10;;;14.90;54.80;;;;;;5069312;28;45289;-68
2023/04/26 00:44:18;;;;;;;0.80;0.80;;;14.90;54.80;;;;;;5069132;28;45322;-68
2023/04/26 00:46:45;;;;;;;1.08;0.90;;;14.90;54.80;;;;;;5068957;28;46744;-68
2023/04/26 00:49:15;;;;;;;2.13;0.88;;;14.90;54.80;;;;;;5069022;28;45117;-68
2023/04/26 00:51:42;;;;;;;1.02;0.98;;;14.90;54.80;;;;;;5069097;28;45280;-73
2023/04/26 00:54:09;;;;;;;0.80;0.80;;;14.90;54.80;;;;;;5069334;28;45234;-68
2023/04/26 00:56:36;;;;;;;0.95;0.88;;;14.90;54.80;;;;;;5068764;28;45398;-69
2023/04/26 00:59:03;;;;;;;1.63;0.88;;;14.90;54.80;;;;;;5068775;28;45166;-68
2023/04/26 01:01:30;;;;;;;1.02;0.93;;;14.90;54.80;;;;;;5068927;28;45261;-68
2023/04/26 01:03:57;;;;;;;1.67;0.90;;;14.90;54.90;;;;;;5068737;28;45280;-68
2023/04/26 01:06:25;;;;;;;0.93;0.93;;;14.90;54.80;;;;;;5068515;28;46332;-68
2023/04/26 01:08:52;;;;;;;0.55;0.55;;;14.90;54.80;;;;;;5068624;28;45278;-68
2023/04/26 01:11:20;;;;;;;0.75;0.75;;;14.90;54.80;;;;;;5068740;28;45190;-68
2023/04/26 01:13:47;;;;;;;0.70;0.70;;;14.80;54.80;;;;;;5068790;28;45450;-68
2023/04/26 01:16:14;;;;;;;0.68;0.68;;;14.80;54.70;;;;;;5068240;28;46273;-68
2023/04/26 01:18:41;;;;;;;0.85;0.85;;;14.80;54.70;;;;;;5065879;28;45325;-68
2023/04/26 01:21:10;;;;;;;1.42;0.80;;;14.80;54.70;;;;;;5068612;28;45207;-68
2023/04/26 01:23:38;;;;;;;0.90;0.90;;;14.80;54.80;;;;;;5068708;28;45326;-68
2023/04/26 01:26:05;;;;;;;1.05;0.80;;;14.80;54.70;;;;;;5067960;28;45278;-68
2023/04/26 01:28:32;;;;;;;0.73;0.73;;;14.80;54.80;;;;;;5068361;28;45207;-69
2023/04/26 01:30:58;;;;;;;0.60;0.60;;;14.80;54.80;;;;;;5068217;28;45319;-68
2023/04/26 01:33:26;;;;;;;0.80;0.80;;;14.80;54.80;;;;;;5068457;28;45585;-68
2023/04/26 01:35:53;;;;;;;0.63;0.63;;;14.80;54.80;;;;;;5068050;28;45388;-68
2023/04/26 01:38:20;;;;;;;0.60;0.60;;;14.80;54.70;;;;;;5068082;28;45256;-68
2023/04/26 01:40:48;;;;;;;0.63;0.60;;;14.80;54.80;;;;;;5068265;28;45265;-68
2023/04/26 01:43:17;;;;;;;0.85;0.52;;;14.70;54.70;;;;;;5068228;28;45257;-69
2023/04/26 01:45:46;;;;;;;0.57;0.57;;;14.70;54.80;;;;;;5068008;28;45476;-68
2023/04/26 01:48:13;;;;;;;1.95;0.70;;;14.70;54.80;;;;;;5068109;28;45320;-68
2023/04/26 01:50:40;;;;;;;0.52;0.52;;;14.70;54.80;;;;;;5066812;28;45315;-68
2023/04/26 01:53:07;;;;;;;0.68;0.60;;;14.70;54.70;;;;;;5068034;28;45318;-68
2023/04/26 01:55:34;;;;;;;0.85;0.68;;;14.70;54.80;;;;;;5067765;28;45382;-68
2023/04/26 01:58:02;;;;;;;0.63;0.52;;;14.70;54.70;;;;;;5067704;28;45353;-68
2023/04/26 02:00:29;;;;;;;0.60;0.60;;;14.70;54.80;;;;;;5067929;28;45161;-68
2023/04/26 02:02:56;;;;;;;0.73;0.73;;;14.70;54.80;;;;;;5067948;28;45202;-68
2023/04/26 02:05:23;;;;;;;1.23;0.73;;;14.70;54.80;;;;;;5067575;28;45458;-68
2023/04/26 02:07:50;;;;;;;0.70;0.70;;;14.70;54.90;;;;;;5067685;28;45392;-68
2023/04/26 02:10:16;;;;;;;0.52;0.52;;;14.70;54.90;;;;;;5067703;28;45249;-68
2023/04/26 02:12:43;;;;;;;0.70;0.70;;;14.70;54.90;;;;;;5067765;28;45396;-69
2023/04/26 02:15:12;;;;;;;1.00;0.70;;;14.70;54.90;;;;;;5067416;28;45318;-68
2023/04/26 02:17:38;;;;;;;1.23;0.90;;;14.60;54.80;;;;;;5067507;28;45318;-69
2023/04/26 02:20:09;;;;;;;0.70;0.60;;;14.60;54.80;;;;;;5067595;28;45269;-68
2023/04/26 02:22:35;;;;;;;0.70;0.70;;;14.60;54.80;;;;;;5067663;28;45444;-68
2023/04/26 02:25:04;;;;;;;0.50;0.50;;;14.60;54.80;;;;;;5067288;28;45300;-68
2023/04/26 02:27:31;;;;;;;0.55;0.55;;;14.60;54.80;;;;;;5067102;28;45298;-68
2023/04/26 02:29:58;;;;;;;0.52;0.52;;;14.60;54.80;;;;;;5067459;28;45257;-68
2023/04/26 02:32:26;;;;;;;0.60;0.60;;;14.60;54.80;;;;;;5067484;28;45185;-69
2023/04/26 02:34:53;;;;;;;0.95;0.70;;;14.60;54.90;;;;;;5066963;28;46682;-68
2023/04/26 02:37:20;;;;;;;0.50;0.50;;;14.60;54.90;;;;;;5067159;28;45440;-68
2023/04/26 02:39:50;;;;;;;0.52;0.52;;;14.50;54.80;;;;;;5067382;28;45189;-68
2023/04/26 02:42:17;;;;;;;0.60;0.60;;;14.50;54.80;;;;;;5067502;28;45567;-68
2023/04/26 02:44:43;;;;;;;0.60;0.60;;;14.50;54.90;;;;;;5067037;28;46566;-68
2023/04/26 02:47:10;;;;;;;0.60;0.60;;;14.50;54.80;;;;;;5067112;28;45249;-68
2023/04/26 02:49:39;;;;;;;0.60;0.60;;;14.50;54.90;;;;;;5067283;28;45213;-68
2023/04/26 02:52:06;;;;;;;0.50;0.50;;;14.50;54.90;;;;;;5067268;28;45266;-68
2023/04/26 02:54:32;;;;;;;0.60;0.60;;;14.50;54.90;;;;;;5066839;28;45698;-68
2023/04/26 02:56:59;;;;;;;0.63;0.63;;;14.50;55.50;;;;;;5066775;28;45361;-68
2023/04/26 02:59:26;;;;;;;0.50;0.50;;;14.50;54.90;;;;;;5067002;28;45422;-68
2023/04/26 03:01:53;;;;;;;0.60;0.60;;;14.50;54.90;;;;;;5066933;28;45325;-68
2023/04/26 03:04:20;;;;;;;0.60;0.60;;;14.50;55.00;;;;;;5066668;28;46728;-68
2023/04/26 03:06:48;;;;;;;0.70;0.70;;;14.50;54.90;;;;;;5066794;28;45250;-68
2023/04/26 03:09:15;;;;;;;0.50;0.50;;;14.50;54.90;;;;;;5066922;28;45243;-68
2023/04/26 03:11:41;;;;;;;0.60;0.60;;;14.50;54.90;;;;;;5066907;28;45453;-68
2023/04/26 03:14:08;;;;;;;0.60;0.60;;;14.40;54.80;;;;;;5066432;28;45595;-68
2023/04/26 03:16:41;;;;;;;0.57;0.57;;;14.40;54.80;;;;;;5066353;28;45178;-68
2023/04/26 03:19:08;;;;;;;0.50;0.50;;;14.40;54.80;;;;;;5066408;28;45173;-68
2023/04/26 03:21:34;;;;;;;0.60;0.60;;;14.40;54.80;;;;;;5066889;28;45480;-68
2023/04/26 03:24:03;;;;;;;0.50;0.50;;;14.40;54.80;;;;;;5066334;28;45473;-68
2023/04/26 03:26:29;;;;;;;0.57;0.57;;;14.40;54.80;;;;;;5066107;28;45423;-68
2023/04/26 03:28:56;;;;;;;0.68;0.68;;;14.40;54.80;;;;;;5066735;28;45321;-68
2023/04/26 03:31:23;;;;;;;0.60;0.60;;;14.30;54.80;;;;;;5066621;28;45160;-68
2023/04/26 03:33:50;;;;;;;0.55;0.55;;;14.30;54.80;;;;;;5066298;28;45259;-68
2023/04/26 03:36:17;;;;;;;0.68;0.68;;;14.30;54.90;;;;;;5066126;28;45449;-68
2023/04/26 03:38:44;;;;;;;0.80;0.80;;;14.30;54.90;;;;;;5066415;28;45502;-68
2023/04/26 03:41:12;;;;;;;0.70;0.70;;;14.30;54.90;;;;;;5066492;28;45262;-68
2023/04/26 03:43:39;;;;;;;1.08;0.73;;;14.30;54.80;;;;;;5066183;28;47347;-68
2023/04/26 03:46:06;;;;;;;0.60;0.60;;;14.30;54.80;;;;;;5066127;28;45215;-68
2023/04/26 03:48:32;;;;;;;0.70;0.70;;;14.30;54.80;;;;;;5066258;28;45219;-68
2023/04/26 03:50:59;;;;;;;0.65;0.65;;;14.30;55.00;;;;;;5066314;28;45352;-68
2023/04/26 03:53:26;;;;;;;0.60;0.60;;;14.30;54.90;;;;;;5066054;28;45258;-68
2023/04/26 03:55:53;;;;;;;0.90;0.90;;;14.30;54.80;;;;;;5065883;28;45209;-68
2023/04/26 03:58:21;;;;;;;0.68;0.68;;;14.20;54.80;;;;;;5066087;28;45254;-68
2023/04/26 04:00:48;;;;;;;0.63;0.63;;;14.20;54.80;;;;;;5066114;28;45176;-68
2023/04/26 04:03:15;;;;;;;0.60;0.60;;;14.20;54.80;;;;;;5065752;28;45478;-68
2023/04/26 04:05:41;;;;;;;0.68;0.68;;;14.20;54.80;;;;;;5065897;28;45390;-68
2023/04/26 04:08:08;;;;;;;0.80;0.80;;;14.20;54.80;;;;;;5066162;28;45223;-68
2023/04/26 04:10:36;;;;;;;0.75;0.75;;;14.20;54.80;;;;;;5066286;28;45401;-68
2023/04/26 04:13:03;;;;;;;0.75;0.75;;;14.20;54.80;;;;;;5064990;28;45490;-68
2023/04/26 04:15:31;;;;;;;0.80;0.80;;;14.10;54.80;;;;;;5065831;28;45242;-68
2023/04/26 04:17:58;;;;;;;1.33;0.98;;;14.20;54.90;;;;;;5065903;28;45198;-68
2023/04/26 04:20:25;;;;;;;1.00;0.80;;;14.10;54.80;;;;;;5066023;28;45329;-68
2023/04/26 04:22:53;;;;;;;0.80;0.80;;;14.10;54.80;;;;;;5065542;28;45185;-68
2023/04/26 04:25:21;;;;;;;1.23;0.98;;;14.10;54.90;;;;;;5065661;28;45351;-68
2023/04/26 04:27:49;;;;;;;0.73;0.73;;;14.10;54.90;;;;;;5065580;28;45439;-68
2023/04/26 04:30:16;;;;;;;0.75;0.75;;;14.10;54.90;;;;;;5065848;28;45408;-68
2023/04/26 04:32:45;;;;;;;0.82;0.82;;;14.10;54.90;;;;;;5065589;28;45187;-68
2023/04/26 04:35:13;;;;;;;1.05;0.88;;;14.10;54.90;;;;;;5065473;28;44751;-68
2023/04/26 04:37:40;;;;;;;0.90;0.90;;;14.10;54.90;;;;;;5065514;28;45295;-68
2023/04/26 04:40:09;;;;;;;1.60;0.90;;;14.10;54.90;;;;;;5065871;28;45269;-68
2023/04/26 04:42:36;;;;;;;1.00;0.77;;;14.10;54.90;;;;;;5065246;28;47008;-71
2023/04/26 04:45:04;;;;;;;0.80;0.80;;;14.10;54.80;;;;;;5065387;28;45328;-68
2023/04/26 04:47:30;;;;;;;0.60;0.60;;;14.10;54.80;;;;;;5065336;28;45280;-68
2023/04/26 04:49:59;;;;;;;0.80;0.80;;;14.00;54.80;;;;;;5065751;28;45349;-68
2023/04/26 04:52:26;;;;;;;1.05;0.90;;;14.00;54.80;;;;;;5065228;28;46732;-68
2023/04/26 04:54:52;;;;;;;0.77;0.77;;;14.00;54.80;;;;;;5065418;28;45313;-68
2023/04/26 04:57:19;;;;;;;1.00;1.00;;;14.00;54.80;;;;;;5065172;28;45210;-68
2023/04/26 04:59:46;;;;;;;1.02;0.80;;;14.00;54.80;;;;;;5065646;28;45174;-68
2023/04/26 05:02:13;;;;;;;1.13;1.02;;;14.00;54.80;;;;;;5064985;28;46350;-68
2023/04/26 05:04:40;;;;;;;0.90;0.75;;;14.00;54.80;;;;;;5065311;28;45359;-68
2023/04/26 05:07:08;;;;;;;0.85;0.80;;;14.00;54.80;;;;;;5065265;28;45285;-68
2023/04/26 05:09:35;;;;;;;0.82;0.60;;;14.00;54.90;;;;;;5065431;28;45416;-70
2023/04/26 05:12:02;;;;;;;1.10;0.90;;;13.90;54.90;;;;;;5064872;28;45531;-68
2023/04/26 05:14:30;;;;;;;0.75;0.75;;;14.00;54.90;;;;;;5064966;28;45340;-68
2023/04/26 05:16:56;;;;;;;0.82;0.82;;;14.00;54.90;;;;;;5065168;28;45288;-68
2023/04/26 05:19:23;;;;;;;0.80;0.80;;;13.90;54.90;;;;;;5065170;28;45219;-68
2023/04/26 05:21:51;;;;;;;0.70;0.68;;;13.90;54.90;;;;;;5064846;28;45223;-68
2023/04/26 05:24:19;;;;;;;0.70;0.70;;;13.90;54.90;;;;;;5065046;28;45189;-68
2023/04/26 05:26:46;;;;;;;0.80;0.80;;;13.90;54.90;;;;;;5067431;28;45273;-67
2023/04/26 05:29:12;;;;;;;0.82;0.82;;;13.90;55.00;;;;;;5068396;28;45401;-68
2023/04/26 05:31:39;;;;;;;0.70;0.70;;;13.90;55.00;;;;;;5068332;28;46692;-68
2023/04/26 05:34:06;;;;;;;0.70;0.70;;;13.90;55.00;;;;;;5068377;28;45261;-68
2023/04/26 05:36:33;;;;;;;0.85;0.80;;;13.90;54.90;;;;;;5068794;28;45286;-68
2023/04/26 05:39:00;;;;;;;0.60;0.60;;;13.90;55.00;;;;;;5068597;28;45351;-68
2023/04/26 05:41:28;;;;;;;0.77;0.77;;;13.90;54.90;;;;;;5068075;28;46412;-68
2023/04/26 05:43:55;;;;;;;0.80;0.80;;;13.90;54.90;;;;;;5068180;28;45183;-68
2023/04/26 05:46:22;;;;;;;1.00;1.00;;;13.90;55.00;;;;;;5068231;28;45313;-68
2023/04/26 05:48:49;;;;;;;0.57;0.57;;;13.90;55.00;;;;;;5068591;28;45295;-68
2023/04/26 05:51:16;;;;;;;0.68;0.68;;;13.90;55.00;;;;;;5065252;28;46519;-68
2023/04/26 05:53:43;;;;;;;0.60;0.60;;;13.90;55.00;;;;;;5068001;28;45257;-68
2023/04/26 05:56:10;;;;;;;0.80;0.70;;;13.90;55.00;;;;;;5067944;28;45269;-68
2023/04/26 05:58:38;;;;;;;0.70;0.70;;;13.90;55.00;;;;;;5067993;28;45466;-68
2023/04/26 06:01:05;;;;;;;0.68;0.68;;;13.90;55.00;;;;;;5067810;28;46473;-68
2023/04/26 06:03:31;;;;;;;0.70;0.70;;;13.90;55.00;;;;;;5067841;28;45337;-68
2023/04/26 06:05:59;;;;;;;1.52;1.00;;;13.90;55.00;;;;;;5067962;28;45358;-68
2023/04/26 06:08:27;;;;;;;0.73;0.73;;;13.90;55.00;;;;;;5068101;28;45222;-68
2023/04/26 06:10:54;;;;;;;0.95;0.80;;;13.90;55.70;;;;;;5067544;28;45266;-68
2023/04/26 06:13:21;;;;;;;0.82;0.82;;;13.90;55.00;;;;;;5067331;28;45323;-68
2023/04/26 06:15:49;;;;;;;0.60;0.60;;;13.90;55.00;;;;;;5067614;28;45341;-68
2023/04/26 06:18:16;;;;;;;0.70;0.70;;;13.90;55.00;;;;;;5067721;28;45190;-68
2023/04/26 06:20:43;;;;;;;0.90;0.90;;;13.90;55.00;;;;;;5067175;28;46936;-68
2023/04/26 06:23:09;;;;;;;0.60;0.60;;;13.90;55.00;;;;;;5067170;28;45350;-68
2023/04/26 06:25:37;;;;;;;1.25;1.00;;;14.00;55.00;;;;;;5067438;28;45314;-68
2023/04/26 06:28:04;;;;;;;0.80;0.80;;;14.00;55.00;;;;;;5067141;28;45304;-68
2023/04/26 06:30:30;;;;;;;0.80;0.80;;;14.00;55.00;;;;;;5067140;28;44976;-68
2023/04/26 06:32:59;;;;;;;1.13;0.98;;;14.00;55.00;;;;;;5067117;28;45146;-68
2023/04/26 06:35:26;;;;;;;0.75;0.75;;;14.00;55.00;;;;;;5067261;28;45348;-68
2023/04/26 06:37:53;;;;;;;0.80;0.80;;;14.00;55.00;;;;;;5066771;28;45401;-68
2023/04/26 06:40:20;;;;;;;1.08;0.80;;;14.00;55.00;;;;;;5066880;28;46857;-68
2023/04/26 06:42:47;;;;;;;1.60;0.90;;;14.00;55.00;;;;;;5067084;28;45292;-68
2023/04/26 06:45:15;;;;;;;0.70;0.70;;;14.00;55.00;;;;;;5067271;28;45257;-68
2023/04/26 06:47:41;;;;;;;0.80;0.80;;;14.00;55.00;;;;;;5067206;28;45399;-68
2023/04/26 06:50:11;;;;;;;0.60;0.60;;;14.00;55.00;;;;;;5066648;28;46669;-68
2023/04/26 06:52:38;;;;;;;1.00;1.00;;;14.00;55.00;;;;;;5066796;28;45198;-68
2023/04/26 06:55:05;;;;;;;0.70;0.70;;;14.00;55.00;;;;;;5067041;28;45293;-67
2023/04/26 06:57:32;;;;;;;1.00;0.90;;;14.00;55.00;;;;;;5067029;28;45459;-68
2023/04/26 06:59:59;;;;;;;1.15;0.80;;;14.00;55.00;;;;;;5066726;28;46411;-68
2023/04/26 07:02:26;;;;;;;0.77;0.75;;;14.00;55.00;;;;;;5066738;28;45133;-68
2023/04/26 07:04:53;;;;;;;0.85;0.73;;;14.00;55.60;;;;;;5066965;28;45253;-74
2023/04/26 07:07:21;;;;;;;1.25;1.00;;;14.00;55.00;;;;;;5067001;28;45510;-67
2023/04/26 07:09:48;;;;;;;0.80;0.80;;;14.00;54.90;;;;;;5066654;28;46370;-68
2023/04/26 07:12:15;;;;;;;1.10;1.00;;;14.00;54.90;;;;;;5066701;28;45178;-68
2023/04/26 07:14:42;;;;;;;0.90;0.90;;;14.00;54.80;;;;;;5067072;28;45131;-68
2023/04/26 07:17:09;;;;;;;0.88;0.88;;;14.10;54.90;;;;;;5067228;28;45452;-67
2023/04/26 07:19:36;;;;;;;1.05;0.90;;;14.00;54.80;;;;;;5066574;28;46677;-67
2023/04/26 07:22:03;;;;;;;1.00;1.00;;;14.10;54.90;;;;;;5066465;28;45339;-66
2023/04/26 07:24:31;;;;;;;1.10;1.00;;;14.10;54.80;;;;;;5066686;28;45190;-67
2023/04/26 07:26:58;;;;;;;0.75;0.75;;;14.10;54.90;;;;;;5066608;28;45201;-67
2023/04/26 07:29:25;;;;;;;0.90;0.90;;;14.10;54.80;;;;;;5066568;28;45529;-67
2023/04/26 07:31:52;;;;;;;0.80;0.80;;;14.10;54.80;;;;;;5066735;28;45286;-67
2023/04/26 07:34:19;;;;;;;1.30;1.20;;;14.10;54.70;;;;;;5066839;28;45388;-67
2023/04/26 07:36:46;;;;;;;1.08;1.08;;;14.10;54.60;;;;;;5067018;28;45275;-67
2023/04/26 07:39:14;;;;;;;1.00;0.90;;;14.20;54.60;;;;;;5066299;28;46438;-67
2023/04/26 07:41:42;;;;;;;0.88;0.88;;;14.20;54.50;;;;;;5066481;28;45316;-67
2023/04/26 07:44:10;;;;;;;1.00;0.90;;;14.20;54.60;;;;;;5066441;28;45304;-68
2023/04/26 07:46:36;;;;;;;0.90;0.90;;;14.20;54.40;;;;;;5067020;28;45190;-68
2023/04/26 07:49:03;;;;;;;0.90;0.90;;;14.20;54.40;;;;;;5065260;28;46346;-67
2023/04/26 07:51:30;;;;;;;0.70;0.70;;;14.20;54.50;;;;;;5066349;28;45325;-67
2023/04/26 07:53:57;;;;;;;0.75;0.75;;;14.20;54.40;;;;;;5066242;28;45300;-67
2023/04/26 07:56:24;;;;;;;0.95;0.95;;;14.30;54.50;;;;;;5066456;28;45281;-67
2023/04/26 07:58:52;;;;;;;1.67;1.02;;;14.20;54.50;;;;;;5066388;28;45481;-67
2023/04/26 08:01:19;;;;;;;1.02;0.93;;;14.20;54.40;;;;;;5066176;28;45268;-67
2023/04/26 08:03:47;;;;;;;1.33;1.00;;;14.30;54.50;;;;;;5066327;28;45355;-67
2023/04/26 08:06:14;;;;;;;0.88;0.82;;;14.30;54.50;;;;;;5066275;28;45439;-67
2023/04/26 08:08:44;;;;;;;0.82;0.82;;;14.30;54.40;;;;;;5066034;28;45182;-67
2023/04/26 08:11:10;;;;;;;0.80;0.80;;;14.30;54.40;;;;;;5065835;28;45428;-68
2023/04/26 08:13:37;;;;;;;0.80;0.80;;;14.40;54.40;;;;;;5066258;28;45341;-71
2023/04/26 08:16:06;;;;;;;0.77;0.77;;;14.40;54.50;;;;;;5066263;28;45362;-71
2023/04/26 08:18:33;;;;;;;1.35;0.98;;;14.40;54.30;;;;;;5065336;28;45495;-71
2023/04/26 08:21:00;;;;;;;0.88;0.80;;;14.40;54.30;;;;;;5065771;28;45412;-71
2023/04/26 08:23:27;;;;;;;1.70;0.90;;;14.50;54.40;;;;;;5065802;28;45370;-72
2023/04/26 08:25:54;;;;;;;0.98;0.95;;;14.50;54.40;;;;;;5065912;28;45323;-71
2023/04/26 08:28:21;;;;;;;0.98;0.95;;;14.50;54.30;;;;;;5065478;28;46405;-70
2023/04/26 08:30:48;;;;;;;1.55;1.10;;;14.50;54.30;;;;;;5065639;28;45162;-71
2023/04/26 08:33:17;;;;;;;2.97;0.90;;;14.50;54.30;;;;;;5065785;28;45187;-71
2023/04/26 08:35:44;;;;;;;1.25;1.10;;;14.50;54.30;;;;;;5065695;28;45534;-71
2023/04/26 08:38:11;;;;;;;0.90;0.90;;;14.60;54.30;;;;;;5065477;28;46473;-71
2023/04/26 08:40:38;;;;;;;4.10;1.00;;;14.60;54.20;;;;;;5065705;28;45202;-70
2023/04/26 08:43:05;;;;;;;0.98;0.98;;;14.60;54.20;;;;;;5065682;28;45453;-70
2023/04/26 08:45:32;;;;;;;0.82;0.82;;;14.60;54.30;;;;;;5065500;28;45409;-71
2023/04/26 08:48:01;;;;;;;4.50;1.10;;;14.60;54.30;;;;;;5065405;28;46680;-71
2023/04/26 08:50:29;;;;;;;0.90;0.90;;;14.60;54.40;;;;;;5065385;28;45322;-72
2023/04/26 08:52:56;;;;;;;1.13;0.93;;;14.70;54.40;;;;;;5065502;28;45261;-71
2023/04/26 08:55:23;;;;;;;0.80;0.80;;;14.60;54.50;;;;;;5065545;28;45320;-71
2023/04/26 08:57:50;;;;;;;0.90;0.90;;;14.70;54.50;;;;;;5065109;28;46816;-71
2023/04/26 09:00:18;;;;;;;0.90;0.90;;;14.70;54.40;;;;;;5067086;28;45234;-72
2023/04/26 09:02:47;;;;;;;1.65;1.25;;;14.70;54.40;;;;;;5068762;28;45194;-72
2023/04/26 09:05:14;;;;;;;1.10;1.00;;;14.80;54.40;;;;;;5069038;28;45340;-71
2023/04/26 09:07:43;;;;;;;1.38;0.95;;;14.80;54.40;;;;;;5068535;28;45214;-71
2023/04/26 09:10:11;;;;;;;1.20;1.00;;;14.80;54.50;;;;;;5068664;28;45417;-71
2023/04/26 09:12:38;;;;;;;1.83;1.10;;;14.80;54.50;;;;;;5066635;28;45360;-72
2023/04/26 09:15:06;;;;;;;1.30;1.20;;;14.80;54.60;;;;;;5085665;28;45386;-71
2023/04/26 09:17:35;;;;;;;2.63;1.27;;;14.80;54.60;;;;;;5077351;28;45330;-71
2023/04/26 09:20:05;;;;;;;2.72;1.23;;;14.80;54.80;;;;;;5068195;28;46358;-71
2023/04/26 09:22:32;;;;;;;1.27;1.17;;;14.90;55.40;;;;;;5068314;28;45269;-72
2023/04/26 09:25:00;;;;;;;1.30;1.20;;;14.90;54.90;;;;;;5068423;28;45232;-72
2023/04/26 09:27:34;;;;;;;1.58;1.48;;;14.90;54.90;;;;;;5067574;28;46422;-72
2023/04/26 09:30:06;;;;;;;1.63;1.27;;;15.00;55.00;;;;;;5068223;28;45386;-72
2023/04/26 09:32:47;;;;;;;2.05;1.40;;;14.90;54.90;;;;;;5068143;28;45309;-72
2023/04/26 09:35:28;;;;;;;2.22;1.40;;;15.00;55.00;;;;;;5068538;28;45383;-72
2023/04/26 09:37:57;;;;;;;1.67;1.20;;;15.00;55.00;;;;;;5067963;28;45425;-73
2023/04/26 09:40:26;;;;;;;1.30;1.20;;;15.00;55.00;;;;;;5066944;28;45472;-72
2023/04/26 09:42:59;;;;;;;1.90;1.42;;;15.00;55.00;;;;;;5068027;28;45439;-72
2023/04/26 09:45:26;;;;;;;1.88;1.17;;;15.10;55.00;;;;;;5068221;28;45360;-71
2023/04/26 09:47:54;;;;;;;1.10;1.00;;;15.10;55.00;;;;;;5067847;28;46385;-71
2023/04/26 09:50:27;;;;;;;1.98;1.40;;;15.10;55.00;;;;;;5067938;28;45407;-72
2023/04/26 09:52:54;;;;;;;1.70;1.60;;;15.10;55.00;;;;;;5067657;28;45259;-72
2023/04/26 09:55:28;;;;;;;2.05;1.52;;;15.10;55.00;;;;;;5067965;28;45470;-72
2023/04/26 09:57:55;;;;;;;1.75;1.17;;;15.20;55.00;;;;;;5067517;28;46475;-72
2023/04/26 10:00:22;;;;;;;1.02;0.98;;;15.20;55.00;;;;;;5067641;28;45254;-71
2023/04/26 10:02:49;;;;;;;1.45;1.00;;;15.20;54.90;;;;;;5067748;28;45265;-72
2023/04/26 10:05:15;;;;;;;1.15;1.10;;;15.30;54.90;;;;;;5067869;28;45456;-71
2023/04/26 10:07:42;;;;;;;3.33;1.48;;;15.30;54.90;;;;;;5067603;28;45249;-72
2023/04/26 10:10:10;;;;;;;1.92;1.10;;;15.30;54.80;;;;;;5067576;28;45260;-72
2023/04/26 10:12:38;;;;;;;1.58;1.27;;;15.30;54.80;;;;;;5066991;28;45372;-72
2023/04/26 10:15:06;;;;;;;1.00;1.00;;;15.30;54.80;;;;;;5067832;28;45420;-72
2023/04/26 10:17:33;;;;;;;1.88;1.17;;;15.40;54.90;;;;;;5067410;28;47297;-72
2023/04/26 10:20:00;;;;;;;1.42;1.27;;;15.40;54.90;;;;;;5067207;28;45152;-72
2023/04/26 10:22:28;;;;;;;1.33;1.20;;;15.40;54.90;;;;;;5067757;28;45206;-72
2023/04/26 10:24:55;;;;;;;1.42;1.25;;;15.50;54.90;;;;;;5067716;28;45356;-72
2023/04/26 10:27:48;;;;;;;1.85;1.33;;;15.50;54.80;;;;;;5066848;28;46659;-71
2023/04/26 10:30:15;;;;;;;1.15;1.05;;;15.50;54.80;;;;;;5067409;28;45136;-72
2023/04/26 10:33:16;;;;;;;1.15;1.05;;;15.60;54.70;;;;;;5067148;28;45127;-72
2023/04/26 10:36:08;;;;;;;1.33;1.23;;;15.60;54.70;;;;;;5067393;28;45328;-72
2023/04/26 10:38:35;;;;;;;1.40;1.13;;;15.60;54.60;;;;;;5066784;28;45162;-72
2023/04/26 10:41:35;;;;;;;1.65;1.00;;;15.70;54.60;;;;;;5066958;28;45266;-72
2023/04/26 10:44:35;;;;;;;1.90;1.20;;;15.80;54.60;;;;;;5062274;28;45606;-72
2023/04/26 10:47:03;;;;;;;0.90;0.90;;;15.80;54.50;;;;;;5067299;28;45253;-72
2023/04/26 10:49:30;;;;;;;0.95;0.93;;;15.90;54.40;;;;;;5066675;28;46377;-70
2023/04/26 10:52:10;;;;;;;1.95;1.20;;;15.90;54.40;;;;;;5066997;28;45218;-72
2023/04/26 10:54:54;;;;;;;1.08;1.05;;;15.90;54.40;;;;;;5067014;28;45373;-70
2023/04/26 10:57:21;;;;;;;1.80;1.30;;;16.00;55.10;;;;;;5067085;28;45333;-70
2023/04/26 11:00:25;;;;;;;3.40;1.40;;;16.00;54.40;;;;;;5066640;28;46965;-71
2023/04/26 11:03:09;;;;;;;1.38;1.27;;;16.00;54.50;;;;;;5066562;28;45461;-71
2023/04/26 11:05:41;;;;;;;2.45;1.63;;;16.10;54.50;;;;;;5066831;28;45387;-70
2023/04/26 11:08:09;;;;;;;1.40;1.30;;;16.10;54.50;;;;;;5066991;28;45187;-70
2023/04/26 11:10:37;;;;;;;1.25;1.15;;;16.20;54.40;;;;;;5066464;28;45450;-70
2023/04/26 11:13:04;;;;;;;2.80;1.23;;;16.20;54.30;;;;;;5066549;28;45336;-70
2023/04/26 11:15:31;;;;;;;2.83;1.13;;;16.20;54.20;;;;;;5066569;28;45254;-71
2023/04/26 11:18:01;;;;;;;1.30;1.20;;;16.20;54.30;;;;;;5066780;28;45435;-70
2023/04/26 11:20:30;;;;;;;1.30;1.20;;;16.30;54.30;;;;;;5066143;28;45307;-70
2023/04/26 11:22:57;;;;;;;2.92;1.23;;;16.30;54.40;;;;;;5066235;28;45314;-70
2023/04/26 11:25:25;;;;;;;2.35;1.27;;;16.30;54.40;;;;;;5066506;28;45159;-71
2023/04/26 11:27:53;;;;;;;2.53;1.40;;;16.30;54.40;;;;;;5066100;28;45333;-70
2023/04/26 11:30:20;;;;;;;1.33;1.23;;;16.30;54.30;;;;;;5065693;28;46680;-71
2023/04/26 11:32:46;;;;;;;2.53;1.35;;;16.40;54.40;;;;;;5066094;28;45144;-72
2023/04/26 11:35:15;;;;;;;2.45;1.42;;;16.40;54.40;;;;;;5066394;28;45175;-71
2023/04/26 11:37:42;;;;;;;1.35;1.25;;;16.40;54.10;;;;;;5066583;28;45352;-73
2023/04/26 11:40:11;;;;;;;1.67;1.58;;;16.40;54.20;;;;;;5066015;28;46423;-72
2023/04/26 11:42:38;;;;;;;5.88;1.40;;;16.50;54.30;;;;;;5066024;28;45119;-71
2023/04/26 11:45:07;;;;;;;1.20;1.10;;;16.50;54.10;;;;;;5066089;28;45142;-71
2023/04/26 11:47:34;;;;;;;1.65;1.20;;;16.50;54.20;;;;;;5066196;28;45451;-70
2023/04/26 11:50:02;;;;;;;2.47;1.10;;;16.50;54.20;;;;;;5065969;28;47305;-70
2023/04/26 11:52:30;;;;;;;1.60;1.50;;;16.50;54.20;;;;;;5065977;28;45206;-71
2023/04/26 11:55:05;;;;;;;1.85;1.20;;;16.60;54.20;;;;;;5065997;28;45425;-71
2023/04/26 11:57:32;;;;;;;1.30;1.20;;;16.60;54.20;;;;;;5066457;28;45484;-71
2023/04/26 12:00:10;;;;;;;1.48;1.38;;;16.60;54.00;;;;;;5065589;28;45447;-71
2023/04/26 12:02:37;;;;;;;1.50;1.27;;;16.60;54.00;;;;;;5066029;28;45624;-71
2023/04/26 12:05:04;;;;;;;3.65;1.50;;;16.70;54.00;;;;;;5066070;28;45355;-71
2023/04/26 12:07:36;;;;;;;4.65;1.60;;;16.70;53.90;;;;;;5066134;28;45131;-71
2023/04/26 12:10:14;;;;;;;2.05;1.25;;;16.80;53.90;;;;;;5065635;28;47587;-71
2023/04/26 12:12:45;;;;;;;1.27;1.17;;;16.80;53.70;;;;;;5062991;28;45250;-71
2023/04/26 12:15:12;;;;;;;1.30;1.20;;;16.80;53.70;;;;;;5065915;28;45431;-71
2023/04/26 12:17:39;;;;;;;3.03;1.60;;;16.80;53.60;;;;;;5065985;28;45135;-71
2023/04/26 12:20:12;;;;;;;1.58;1.42;;;16.90;53.60;;;;;;5065361;28;45736;-71
2023/04/26 12:22:41;;;;;;;1.60;1.40;;;17.00;53.40;;;;;;5062823;28;45305;-71
2023/04/26 12:25:09;;;;;;;1.98;1.20;;;17.00;53.30;;;;;;5065660;28;45346;-71
2023/04/26 12:27:36;;;;;;;1.40;1.30;;;17.00;53.40;;;;;;5065426;28;45319;-71
2023/04/26 12:30:03;;;;;;;1.27;1.17;;;17.00;53.40;;;;;;5065390;28;45744;-72
2023/04/26 12:32:30;;;;;;;1.27;1.23;;;17.10;53.40;;;;;;5065299;28;45202;-71
2023/04/26 12:34:57;;;;;;;1.35;1.30;;;17.10;53.20;;;;;;5066939;28;45197;-71
2023/04/26 12:37:24;;;;;;;1.40;1.20;;;17.10;53.20;;;;;;5069255;28;45251;-71
2023/04/26 12:39:52;;;;;;;1.35;1.25;;;17.10;53.20;;;;;;5068709;28;46415;-73
2023/04/26 12:42:19;;;;;;;1.75;1.30;;;17.10;53.10;;;;;;5068952;28;45261;-72
2023/04/26 12:44:45;;;;;;;3.88;1.40;;;17.20;53.10;;;;;;5069052;28;45222;-71
2023/04/26 12:47:12;;;;;;;1.75;1.20;;;17.20;53.10;;;;;;5069071;28;45373;-71
2023/04/26 12:49:40;;;;;;;1.27;1.20;;;17.20;53.00;;;;;;5068732;28;45242;-72
2023/04/26 12:52:07;;;;;;;3.50;1.30;;;17.20;53.00;;;;;;5068753;28;45357;-72